createdAt,value
2018-07-15T00:00:29.235Z,4.30
2018-07-15T00:02:57.533Z,4.70
2018-07-15T00:05:25.905Z,4.62
2018-07-15T00:07:54.244Z,4.97
2018-07-15T00:10:22.654Z,4.72
2018-07-15T00:12:51.059Z,4.90
2018-07-15T00:15:19.387Z,4.72
2018-07-15T00:17:47.699Z,4.80
2018-07-15T00:20:16.085Z,4.60
2018-07-15T00:22:44.381Z,5.00
2018-07-15T00:25:12.759Z,5.10
2018-07-15T00:27:41.129Z,4.90
2018-07-15T00:30:09.462Z,5.70
2018-07-15T00:32:37.767Z,5.55
2018-07-15T00:35:06.112Z,6.05
2018-07-15T00:37:34.412Z,5.87
2018-07-15T00:40:02.824Z,5.90
2018-07-15T00:42:31.197Z,5.73
2018-07-15T00:44:59.507Z,6.03
2018-07-15T00:47:27.955Z,5.87
2018-07-15T00:49:56.278Z,6.30
2018-07-15T00:52:24.610Z,5.80
2018-07-15T00:54:52.953Z,5.70
2018-07-15T00:57:21.364Z,5.20
2018-07-15T00:59:49.694Z,5.40
2018-07-15T01:02:18.064Z,6.00
2018-07-15T01:04:46.387Z,5.70
2018-07-15T01:07:14.704Z,5.72
2018-07-15T01:09:43.037Z,5.47
2018-07-15T01:12:11.365Z,6.00
2018-07-15T01:14:39.698Z,5.80
2018-07-15T01:17:08.108Z,5.40
2018-07-15T01:19:36.574Z,5.80
2018-07-15T01:22:04.915Z,6.20
2018-07-15T01:24:33.256Z,6.50
2018-07-15T01:27:01.569Z,5.80
2018-07-15T01:29:29.908Z,6.70
2018-07-15T01:31:58.276Z,6.58
2018-07-15T01:34:26.577Z,6.70
2018-07-15T01:36:54.896Z,6.20
2018-07-15T01:39:23.234Z,5.50
2018-07-15T01:41:51.524Z,6.40
2018-07-15T01:44:19.953Z,6.67
2018-07-15T01:46:48.278Z,6.60
2018-07-15T01:49:16.577Z,6.33
2018-07-15T01:51:44.954Z,6.62
2018-07-15T01:54:13.322Z,6.47
2018-07-15T01:56:41.660Z,7.00
2018-07-15T01:59:09.991Z,7.05
2018-07-15T02:01:38.322Z,6.35
2018-07-15T02:04:06.693Z,6.92
2018-07-15T02:06:35.004Z,6.65
2018-07-15T02:09:03.518Z,6.25
2018-07-15T02:11:31.849Z,6.90
2018-07-15T02:14:00.190Z,7.10
2018-07-15T02:16:28.531Z,7.17
2018-07-15T02:18:56.890Z,6.70
2018-07-15T02:21:25.201Z,6.90
2018-07-15T02:23:53.497Z,7.30
2018-07-15T02:26:22.035Z,6.90
2018-07-15T02:28:50.393Z,6.90
2018-07-15T02:31:18.787Z,6.70
2018-07-15T02:33:47.161Z,7.00
2018-07-15T02:36:15.573Z,7.23
2018-07-15T02:38:43.923Z,7.30
2018-07-15T02:41:12.292Z,6.83
2018-07-15T02:43:40.628Z,7.17
2018-07-15T02:46:09.176Z,7.20
2018-07-15T02:48:37.501Z,7.30
2018-07-15T02:51:05.869Z,7.42
2018-07-15T02:53:34.219Z,7.50
2018-07-15T02:56:02.544Z,7.47
2018-07-15T02:58:30.889Z,7.50
2018-07-15T03:00:59.212Z,7.95
2018-07-15T03:03:27.546Z,7.83
2018-07-15T03:05:55.900Z,7.83
2018-07-15T03:08:24.243Z,8.20
2018-07-15T03:10:52.591Z,7.97
2018-07-15T03:13:20.979Z,9.00
2018-07-15T03:15:49.319Z,8.98
2018-07-15T03:18:17.671Z,8.40
2018-07-15T03:20:46.144Z,8.33
2018-07-15T03:23:14.525Z,8.53
2018-07-15T03:25:42.864Z,8.70
2018-07-15T03:28:11.240Z,8.10
2018-07-15T03:30:39.581Z,8.70
2018-07-15T03:33:07.909Z,8.13
2018-07-15T03:35:36.480Z,8.00
2018-07-15T03:38:04.932Z,8.68
2018-07-15T03:40:33.272Z,7.70
2018-07-15T03:43:01.630Z,7.87
2018-07-15T03:45:30.063Z,8.28
2018-07-15T03:47:58.421Z,8.73
2018-07-15T03:50:26.817Z,8.40
2018-07-15T03:52:55.144Z,9.03
2018-07-15T03:55:23.491Z,8.40
2018-07-15T03:57:51.829Z,8.98
2018-07-15T04:00:20.214Z,9.15
2018-07-15T04:02:48.545Z,8.68
2018-07-15T04:05:17.002Z,8.10
2018-07-15T04:07:45.321Z,8.40
2018-07-15T04:10:13.692Z,8.55
2018-07-15T04:12:42.036Z,8.00
2018-07-15T04:15:10.371Z,7.10
2018-07-15T04:17:38.711Z,6.83
2018-07-15T04:20:07.060Z,7.37
2018-07-15T04:22:35.438Z,6.60
2018-07-15T04:25:03.781Z,6.42
2018-07-15T04:27:32.112Z,6.40
2018-07-15T04:30:00.445Z,6.10
2018-07-15T04:32:28.798Z,6.65
2018-07-15T04:34:57.111Z,5.62
2018-07-15T04:37:25.460Z,5.80
2018-07-15T04:39:53.777Z,5.62
2018-07-15T04:42:22.109Z,5.87
2018-07-15T04:44:50.424Z,6.10
2018-07-15T04:47:18.772Z,5.70
2018-07-15T04:49:47.057Z,5.90
2018-07-15T04:52:15.380Z,5.80
2018-07-15T04:54:43.760Z,6.10
2018-07-15T04:57:12.057Z,6.30
2018-07-15T04:59:40.389Z,6.17
2018-07-15T05:02:08.751Z,5.55
2018-07-15T05:04:37.167Z,5.65
2018-07-15T05:07:05.502Z,5.60
2018-07-15T05:09:33.805Z,6.20
2018-07-15T05:12:02.145Z,6.10
2018-07-15T05:14:30.469Z,5.60
2018-07-15T05:16:58.822Z,5.53
2018-07-15T05:19:28.007Z,6.30
2018-07-15T05:21:56.344Z,5.80
2018-07-15T05:24:24.669Z,5.80
2018-07-15T05:26:53.220Z,6.40
2018-07-15T05:29:21.770Z,6.47
2018-07-15T05:31:50.102Z,8.10
2018-07-15T05:34:18.546Z,7.70
2018-07-15T05:36:46.948Z,6.20
2018-07-15T05:39:15.300Z,6.53
2018-07-15T05:41:43.630Z,6.43
2018-07-15T05:44:12.032Z,7.08
2018-07-15T05:46:40.319Z,6.75
2018-07-15T05:49:08.669Z,6.03
2018-07-15T05:51:37.041Z,6.10
2018-07-15T05:54:05.407Z,5.70
2018-07-15T05:56:33.728Z,5.72
2018-07-15T05:59:02.117Z,5.90
2018-07-15T06:01:30.457Z,5.70
2018-07-15T06:03:58.781Z,5.80
2018-07-15T06:06:27.151Z,5.40
2018-07-15T06:08:55.443Z,6.20
2018-07-15T06:11:23.880Z,6.75
2018-07-15T06:13:52.224Z,6.10
2018-07-15T06:16:20.562Z,6.50
2018-07-15T06:18:48.923Z,6.72
2018-07-15T06:21:17.219Z,6.43
2018-07-15T06:23:45.561Z,6.97
2018-07-15T06:26:13.913Z,6.10
2018-07-15T06:28:42.302Z,6.28
2018-07-15T06:31:10.620Z,6.33
2018-07-15T06:33:38.939Z,6.60
2018-07-15T06:36:07.249Z,6.60
2018-07-15T06:38:35.604Z,6.80
2018-07-15T06:41:04.005Z,6.80
2018-07-15T06:43:32.331Z,6.40
2018-07-15T06:46:00.656Z,7.12
2018-07-15T06:48:28.993Z,6.45
2018-07-15T06:50:57.431Z,6.87
2018-07-15T06:53:25.872Z,6.90
2018-07-15T06:55:54.203Z,6.70
2018-07-15T06:58:22.732Z,6.97
2018-07-15T07:00:51.167Z,7.00
2018-07-15T07:03:20.045Z,6.58
2018-07-15T07:05:48.449Z,6.45
2018-07-15T07:08:16.862Z,6.60
2018-07-15T07:10:45.188Z,6.20
2018-07-15T07:13:13.597Z,6.47
2018-07-15T07:15:41.940Z,6.10
2018-07-15T07:18:10.353Z,7.50
2018-07-15T07:20:38.731Z,6.80
2018-07-15T07:23:07.172Z,6.83
2018-07-15T07:25:35.710Z,6.85
2018-07-15T07:28:04.063Z,6.67
2018-07-15T07:30:32.776Z,5.70
2018-07-15T07:33:01.144Z,6.42
2018-07-15T07:35:29.507Z,6.90
2018-07-15T07:37:57.974Z,6.87
2018-07-15T07:40:26.319Z,6.80
2018-07-15T07:42:54.795Z,6.00
2018-07-15T07:45:23.138Z,6.67
2018-07-15T07:47:51.472Z,6.40
2018-07-15T07:50:20.001Z,6.20
2018-07-15T07:52:48.326Z,6.15
2018-07-15T07:55:16.643Z,6.50
2018-07-15T07:57:44.970Z,5.90
2018-07-15T08:00:13.308Z,5.40
2018-07-15T08:02:41.687Z,5.53
2018-07-15T08:05:10.013Z,5.83
2018-07-15T08:07:38.429Z,5.40
2018-07-15T08:10:06.714Z,5.43
2018-07-15T08:12:35.056Z,5.77
2018-07-15T08:15:03.404Z,4.95
2018-07-15T08:17:31.743Z,4.30
2018-07-15T08:20:00.154Z,4.80
2018-07-15T08:22:28.533Z,4.03
2018-07-15T08:24:56.823Z,4.20
2018-07-15T08:27:25.157Z,5.00
2018-07-15T08:31:04.619Z,4.08
2018-07-15T08:33:33.020Z,3.42
2018-07-15T08:36:01.385Z,4.40
2018-07-15T08:38:29.800Z,4.60
2018-07-15T08:40:58.155Z,3.70
2018-07-15T08:43:27.214Z,3.10
2018-07-15T08:45:55.581Z,3.00
2018-07-15T08:48:24.068Z,3.30
2018-07-15T08:50:52.394Z,3.87
2018-07-15T08:53:20.887Z,3.60
2018-07-15T08:55:49.244Z,3.30
2018-07-15T08:58:17.576Z,3.20
2018-07-15T09:00:46.091Z,3.17
2018-07-15T09:03:14.428Z,2.70
2018-07-15T09:05:42.769Z,2.80
2018-07-15T09:08:11.094Z,3.20
2018-07-15T09:10:39.452Z,2.80
2018-07-15T09:13:07.781Z,2.80
2018-07-15T09:15:36.157Z,2.30
2018-07-15T09:18:04.586Z,2.40
2018-07-15T09:20:32.943Z,2.70
2018-07-15T09:23:01.342Z,3.00
2018-07-15T09:25:29.704Z,2.70
2018-07-15T09:27:58.055Z,2.20
2018-07-15T09:30:26.338Z,2.27
2018-07-15T09:32:55.103Z,2.40
2018-07-15T09:35:23.454Z,2.10
2018-07-15T09:37:51.882Z,2.35
2018-07-15T09:40:20.282Z,2.10
2018-07-15T09:42:48.626Z,2.00
2018-07-15T09:45:17.120Z,2.10
2018-07-15T09:47:45.445Z,1.80
2018-07-15T09:50:13.860Z,1.80
2018-07-15T09:52:42.287Z,1.70
2018-07-15T09:55:10.784Z,1.40
2018-07-15T09:57:39.385Z,2.00
2018-07-15T10:00:08.708Z,2.00
2018-07-15T10:02:37.089Z,2.00
2018-07-15T10:05:05.401Z,1.40
2018-07-15T10:07:33.837Z,1.40
2018-07-15T10:10:02.127Z,1.92
2018-07-15T10:12:30.422Z,1.70
2018-07-15T10:14:58.712Z,1.60
2018-07-15T10:17:27.026Z,1.90
2018-07-15T10:19:55.385Z,1.40
2018-07-15T10:22:23.712Z,1.40
2018-07-15T10:24:52.038Z,1.22
2018-07-15T10:27:20.363Z,1.10
2018-07-15T10:29:48.693Z,0.90
2018-07-15T10:32:17.052Z,1.00
2018-07-15T10:34:45.401Z,1.37
2018-07-15T10:37:13.713Z,1.00
2018-07-15T10:39:42.123Z,1.20
2018-07-15T10:42:10.416Z,1.12
2018-07-15T10:44:38.809Z,1.10
2018-07-15T10:47:07.098Z,1.10
2018-07-15T10:49:35.426Z,1.30
2018-07-15T10:52:03.698Z,1.07
2018-07-15T10:54:32.105Z,1.27
2018-07-15T10:57:00.445Z,1.60
2018-07-15T10:59:28.756Z,1.20
2018-07-15T11:01:57.078Z,1.30
2018-07-15T11:04:25.373Z,1.50
2018-07-15T11:06:53.710Z,1.20
2018-07-15T11:09:22.022Z,1.10
2018-07-15T11:11:50.350Z,1.20
2018-07-15T11:14:18.762Z,1.10
2018-07-15T11:16:47.077Z,1.30
2018-07-15T11:19:15.383Z,1.30
2018-07-15T11:21:43.691Z,1.20
2018-07-15T11:24:12.039Z,1.25
2018-07-15T11:26:40.356Z,1.80
2018-07-15T11:29:08.727Z,1.02
2018-07-15T11:31:37.109Z,1.00
2018-07-15T11:34:05.588Z,1.10
2018-07-15T11:36:33.948Z,1.02
2018-07-15T11:39:02.358Z,1.00
2018-07-15T11:41:30.666Z,0.88
2018-07-15T11:43:59.000Z,0.90
2018-07-15T11:46:27.507Z,1.10
2018-07-15T11:48:55.947Z,1.00
2018-07-15T11:51:24.273Z,0.97
2018-07-15T11:53:52.616Z,1.00
2018-07-15T11:56:20.949Z,1.07
2018-07-15T11:58:49.293Z,0.90
2018-07-15T12:01:17.650Z,0.82
2018-07-15T12:03:46.897Z,1.00
2018-07-15T12:06:15.230Z,0.80
2018-07-15T12:08:43.630Z,0.90
2018-07-15T12:11:12.053Z,0.80
2018-07-15T12:13:40.286Z,1.20
2018-07-15T12:16:08.623Z,0.98
2018-07-15T12:18:36.986Z,1.00
2018-07-15T12:21:05.259Z,0.90
2018-07-15T12:23:33.574Z,0.70
2018-07-15T12:26:01.930Z,0.80
2018-07-15T12:28:30.254Z,0.70
2018-07-15T12:30:58.563Z,0.90
2018-07-15T12:33:26.902Z,0.80
2018-07-15T12:35:55.202Z,0.80
2018-07-15T12:38:23.604Z,0.80
2018-07-15T12:40:51.906Z,0.70
2018-07-15T12:43:20.275Z,0.70
2018-07-15T12:45:49.579Z,0.70
2018-07-15T12:48:17.876Z,0.80
2018-07-15T12:50:46.244Z,0.80
2018-07-15T12:53:14.569Z,0.70
2018-07-15T12:55:42.929Z,0.70
2018-07-15T12:58:11.241Z,0.70
2018-07-15T13:00:39.619Z,0.60
2018-07-15T13:03:08.161Z,0.80
2018-07-15T13:05:36.486Z,0.80
2018-07-15T13:08:04.793Z,1.10
2018-07-15T13:10:33.126Z,0.60
2018-07-15T13:13:03.560Z,0.70
2018-07-15T13:15:31.932Z,0.72
2018-07-15T13:18:00.225Z,0.70
2018-07-15T13:20:29.537Z,0.65
2018-07-15T13:22:57.857Z,0.60
2018-07-15T13:25:26.216Z,0.70
2018-07-15T13:27:54.540Z,0.90
2018-07-15T13:30:22.900Z,0.60
2018-07-15T13:32:51.199Z,0.70
2018-07-15T13:35:19.522Z,0.60
2018-07-15T13:37:47.961Z,0.60
2018-07-15T13:40:16.303Z,0.70
2018-07-15T13:42:44.598Z,0.70
2018-07-15T13:45:12.922Z,0.70
2018-07-15T13:47:41.263Z,1.00
2018-07-15T13:50:09.608Z,0.70
2018-07-15T13:52:37.933Z,0.70
2018-07-15T13:55:06.395Z,0.50
2018-07-15T13:57:34.712Z,0.70
2018-07-15T14:00:03.316Z,0.70
2018-07-15T14:02:31.708Z,0.70
2018-07-15T14:04:59.999Z,0.80
2018-07-15T14:07:28.352Z,0.80
2018-07-15T14:09:56.711Z,0.70
2018-07-15T14:12:25.090Z,0.60
2018-07-15T14:14:53.404Z,0.68
2018-07-15T14:17:21.747Z,0.60
2018-07-15T14:19:50.070Z,0.80
2018-07-15T14:22:18.404Z,0.70
2018-07-15T14:24:46.772Z,0.70
2018-07-15T14:27:15.076Z,0.70
2018-07-15T14:29:43.375Z,0.70
2018-07-15T14:32:11.655Z,0.60
2018-07-15T14:34:39.972Z,0.60
2018-07-15T14:37:08.295Z,0.60
2018-07-15T14:39:40.017Z,1.30
2018-07-15T14:42:08.409Z,0.70
2018-07-15T14:44:38.359Z,0.70
2018-07-15T14:47:07.105Z,0.70
2018-07-15T14:49:35.635Z,0.70
2018-07-15T14:52:03.959Z,0.70
2018-07-15T14:54:32.295Z,0.83
2018-07-15T14:57:00.715Z,0.60
2018-07-15T14:59:29.013Z,0.90
2018-07-15T15:01:57.439Z,0.80
2018-07-15T15:04:25.743Z,0.80
2018-07-15T15:06:54.081Z,0.68
2018-07-15T15:09:22.660Z,0.88
2018-07-15T15:11:50.954Z,0.70
2018-07-15T15:14:19.307Z,0.80
2018-07-15T15:16:47.644Z,0.60
2018-07-15T15:19:16.064Z,0.62
2018-07-15T15:21:44.412Z,0.60
2018-07-15T15:24:12.779Z,0.80
2018-07-15T15:26:41.093Z,0.60
2018-07-15T15:29:09.449Z,0.70
2018-07-15T15:31:37.766Z,0.60
2018-07-15T15:34:06.095Z,0.80
2018-07-15T15:36:34.433Z,2.10
2018-07-15T15:39:02.798Z,0.60
2018-07-15T15:41:31.124Z,0.60
2018-07-15T15:43:59.558Z,0.80
2018-07-15T15:46:27.909Z,0.70
2018-07-15T15:48:56.204Z,0.50
2018-07-15T15:51:24.580Z,0.60
2018-07-15T15:53:53.005Z,1.00
2018-07-15T15:56:21.322Z,1.50
2018-07-15T15:58:49.650Z,1.20
2018-07-15T16:01:17.953Z,1.30
2018-07-15T16:03:46.299Z,1.77
2018-07-15T16:06:14.636Z,0.60
2018-07-15T16:08:43.000Z,0.90
2018-07-15T16:11:11.295Z,1.45
2018-07-15T16:13:39.654Z,0.50
2018-07-15T16:16:08.172Z,0.70
2018-07-15T16:18:36.454Z,0.80
2018-07-15T16:21:04.782Z,0.60
2018-07-15T16:23:33.074Z,0.70
2018-07-15T16:26:01.468Z,0.80
2018-07-15T16:28:29.776Z,0.70
2018-07-15T16:30:58.126Z,0.70
2018-07-15T16:33:26.400Z,0.90
2018-07-15T16:35:54.751Z,0.80
2018-07-15T16:38:23.152Z,0.80
2018-07-15T16:40:51.480Z,0.80
2018-07-15T16:43:19.951Z,0.60
2018-07-15T16:45:48.274Z,0.75
2018-07-15T16:48:16.659Z,0.60
2018-07-15T16:50:44.977Z,0.70
2018-07-15T16:53:13.313Z,0.90
2018-07-15T16:55:41.627Z,1.35
2018-07-15T16:58:09.953Z,4.40
2018-07-15T17:00:38.300Z,1.30
2018-07-15T17:03:06.723Z,0.70
2018-07-15T17:05:35.056Z,0.80
2018-07-15T17:08:03.397Z,0.90
2018-07-15T17:10:31.713Z,1.03
2018-07-15T17:13:00.001Z,1.00
2018-07-15T17:15:28.323Z,1.00
2018-07-15T17:17:56.635Z,1.00
2018-07-15T17:20:25.000Z,1.00
2018-07-15T17:22:53.299Z,1.60
2018-07-15T17:25:21.618Z,0.70
2018-07-15T17:27:49.984Z,0.80
2018-07-15T17:30:18.297Z,1.00
2018-07-15T17:32:46.804Z,0.80
2018-07-15T17:35:15.152Z,0.80
2018-07-15T17:37:43.540Z,0.80
2018-07-15T17:40:11.882Z,0.93
2018-07-15T17:42:40.245Z,1.30
2018-07-15T17:45:08.636Z,1.10
2018-07-15T17:47:37.025Z,0.80
2018-07-15T17:50:05.343Z,0.90
2018-07-15T17:52:33.644Z,0.80
2018-07-15T17:55:02.042Z,0.80
2018-07-15T17:57:30.382Z,0.80
2018-07-15T17:59:58.650Z,0.70
2018-07-15T18:02:26.965Z,0.90
2018-07-15T18:04:55.276Z,0.90
2018-07-15T18:07:23.554Z,0.90
2018-07-15T18:09:51.861Z,0.80
2018-07-15T18:12:20.197Z,0.90
2018-07-15T18:14:48.590Z,1.10
2018-07-15T18:17:16.943Z,1.20
2018-07-15T18:19:45.603Z,0.90
2018-07-15T18:22:14.030Z,0.80
2018-07-15T18:24:42.558Z,0.80
2018-07-15T18:27:11.241Z,1.00
2018-07-15T18:29:39.547Z,1.10
2018-07-15T18:32:07.912Z,1.00
2018-07-15T18:34:36.362Z,1.10
2018-07-15T18:37:05.106Z,2.20
2018-07-15T18:39:33.443Z,1.37
2018-07-15T18:42:01.890Z,1.40
2018-07-15T18:44:30.239Z,1.70
2018-07-15T18:46:58.590Z,1.55
2018-07-15T18:49:26.897Z,1.15
2018-07-15T18:51:55.262Z,2.17
2018-07-15T18:54:23.660Z,2.10
2018-07-15T18:56:51.978Z,2.50
2018-07-15T18:59:20.299Z,1.30
2018-07-15T19:01:48.631Z,1.50
2018-07-15T19:04:17.008Z,1.90
2018-07-15T19:06:45.608Z,3.35
2018-07-15T19:09:13.967Z,2.45
2018-07-15T19:11:42.351Z,1.10
2018-07-15T19:14:10.687Z,1.40
2018-07-15T19:16:39.068Z,1.22
2018-07-15T19:19:07.604Z,1.00
2018-07-15T19:21:35.933Z,1.10
2018-07-15T19:24:04.282Z,1.60
2018-07-15T19:26:32.609Z,1.52
2018-07-15T19:29:01.058Z,1.50
2018-07-15T19:31:29.484Z,1.20
2018-07-15T19:33:58.082Z,5.27
2018-07-15T19:36:26.475Z,3.40
2018-07-15T19:38:54.994Z,1.30
2018-07-15T19:41:23.343Z,1.60
2018-07-15T19:43:51.692Z,1.22
2018-07-15T19:46:20.132Z,1.20
2018-07-15T19:48:48.475Z,1.20
2018-07-15T19:51:16.775Z,1.30
2018-07-15T19:53:45.142Z,1.20
2018-07-15T19:56:13.521Z,1.25
2018-07-15T19:58:42.041Z,1.10
2018-07-15T20:01:10.518Z,1.20
2018-07-15T20:03:38.773Z,1.65
2018-07-15T20:06:07.216Z,3.10
2018-07-15T20:08:35.563Z,3.17
2018-07-15T20:11:03.923Z,4.53
2018-07-15T20:13:32.274Z,2.80
2018-07-15T20:16:00.639Z,2.98
2018-07-15T20:18:29.138Z,2.92
2018-07-15T20:20:57.492Z,1.10
2018-07-15T20:23:25.956Z,2.00
2018-07-15T20:25:54.269Z,2.10
2018-07-15T20:28:22.623Z,1.90
2018-07-15T20:30:50.926Z,2.92
2018-07-15T20:33:19.252Z,1.70
2018-07-15T20:35:47.930Z,2.10
2018-07-15T20:38:16.337Z,1.95
2018-07-15T20:40:44.748Z,1.40
2018-07-15T20:43:13.362Z,1.65
2018-07-15T20:45:41.800Z,1.60
2018-07-15T20:48:10.209Z,2.00
2018-07-15T20:50:38.701Z,1.57
2018-07-15T20:53:07.065Z,2.30
2018-07-15T20:55:35.436Z,1.80
2018-07-15T20:58:03.825Z,1.80
2018-07-15T21:00:32.197Z,1.70
2018-07-15T21:03:00.615Z,1.60
2018-07-15T21:05:29.054Z,1.70
2018-07-15T21:07:57.434Z,1.60
2018-07-15T21:10:25.808Z,1.50
2018-07-15T21:12:54.646Z,1.60
2018-07-15T21:15:22.990Z,1.53
2018-07-15T21:17:51.416Z,1.80
2018-07-15T21:20:19.806Z,2.70
2018-07-15T21:22:48.140Z,1.30
2018-07-15T21:25:16.523Z,1.55
2018-07-15T21:27:44.847Z,1.40
2018-07-15T21:30:13.191Z,1.50
2018-07-15T21:32:41.548Z,1.60
2018-07-15T21:35:09.848Z,2.20
2018-07-15T21:37:38.186Z,1.80
2018-07-15T21:40:06.522Z,1.70
2018-07-15T21:42:34.966Z,2.60
2018-07-15T21:45:03.326Z,3.12
2018-07-15T21:47:31.654Z,2.70
2018-07-15T21:50:00.112Z,2.72
2018-07-15T21:52:28.610Z,2.98
2018-07-15T21:54:56.988Z,2.83
2018-07-15T21:57:25.334Z,1.90
2018-07-15T21:59:53.684Z,2.30
2018-07-15T22:02:22.002Z,1.85
2018-07-15T22:04:50.404Z,2.65
2018-07-15T22:07:30.017Z,1.70
2018-07-15T22:11:07.147Z,1.70
2018-07-15T22:13:35.465Z,1.67
2018-07-15T22:16:03.918Z,1.80
2018-07-15T22:18:32.214Z,2.05
2018-07-15T22:21:00.589Z,1.60
2018-07-15T22:23:28.925Z,1.60
2018-07-15T22:25:57.315Z,1.80
2018-07-15T22:28:25.660Z,1.60
2018-07-15T22:30:53.946Z,1.57
2018-07-15T22:33:22.250Z,1.55
2018-07-15T22:35:50.671Z,2.00
2018-07-15T22:38:19.041Z,1.55
2018-07-15T22:40:47.415Z,1.65
2018-07-15T22:43:15.740Z,2.30
2018-07-15T22:45:44.035Z,2.73
2018-07-15T22:48:12.469Z,2.10
2018-07-15T22:50:40.820Z,1.60
2018-07-15T22:53:09.136Z,4.50
2018-07-15T22:55:37.421Z,3.00
2018-07-15T22:58:06.024Z,1.80
2018-07-15T23:00:34.354Z,1.80
2018-07-15T23:03:02.694Z,1.70
2018-07-15T23:05:45.717Z,1.50
2018-07-15T23:08:14.168Z,1.70
2018-07-15T23:10:42.534Z,1.60
2018-07-15T23:13:11.561Z,2.00
2018-07-15T23:15:40.235Z,1.70
2018-07-15T23:18:08.688Z,1.80
2018-07-15T23:20:37.891Z,1.70
2018-07-15T23:23:07.120Z,1.87
2018-07-15T23:25:35.611Z,2.10
2018-07-15T23:28:04.620Z,1.70
2018-07-15T23:30:33.772Z,1.95
2018-07-15T23:33:02.478Z,1.95
2018-07-15T23:35:30.926Z,1.60
2018-07-15T23:37:59.293Z,1.90
2018-07-15T23:40:27.632Z,1.92
2018-07-15T23:42:56.828Z,1.90
2018-07-15T23:45:25.924Z,2.15
2018-07-15T23:47:54.689Z,1.67
2018-07-15T23:50:23.132Z,1.77
2018-07-15T23:52:51.616Z,1.90
2018-07-15T23:55:20.021Z,1.80
2018-07-15T23:57:48.494Z,2.08
